sensor_id;sensor_type;location;lat;lon;timestamp;pressure;altitude;pressure_sealevel;temperature;humidity
36234;BME280;43467;50.890;5.982;2023-08-08T00:00:17;100156.84;;;15.03;73.69
36234;BME280;43467;50.890;5.982;2023-08-08T00:02:43;100199.78;;;15.39;73.48
36234;BME280;43467;50.890;5.982;2023-08-08T00:05:09;100205.78;;;15.28;74.00
36234;BME280;43467;50.890;5.982;2023-08-08T00:07:34;100176.97;;;15.21;74.43
36234;BME280;43467;50.890;5.982;2023-08-08T00:10:00;100091.22;;;14.73;74.14
36234;BME280;43467;50.890;5.982;2023-08-08T00:12:25;100124.31;;;14.83;74.75
36234;BME280;43467;50.890;5.982;2023-08-08T00:14:51;100116.88;;;14.62;74.94
36234;BME280;43467;50.890;5.982;2023-08-08T00:17:16;100170.41;;;15.12;74.98
36234;BME280;43467;50.890;5.982;2023-08-08T00:19:42;100168.25;;;15.05;75.57
36234;BME280;43467;50.890;5.982;2023-08-08T00:22:07;100138.72;;;14.81;75.74
36234;BME280;43467;50.890;5.982;2023-08-08T00:24:33;100103.53;;;14.62;75.84
36234;BME280;43467;50.890;5.982;2023-08-08T00:26:59;100151.16;;;14.95;76.08
36234;BME280;43467;50.890;5.982;2023-08-08T00:29:25;100085.13;;;14.45;76.27
36234;BME280;43467;50.890;5.982;2023-08-08T00:31:50;100179.03;;;15.03;76.77
36234;BME280;43467;50.890;5.982;2023-08-08T00:34:16;100163.84;;;14.91;77.01
36234;BME280;43467;50.890;5.982;2023-08-08T00:36:41;100166.09;;;14.97;77.07
36234;BME280;43467;50.890;5.982;2023-08-08T00:39:07;100167.66;;;14.87;77.44
36234;BME280;43467;50.890;5.982;2023-08-08T00:41:33;100172.78;;;14.90;77.54
36234;BME280;43467;50.890;5.982;2023-08-08T00:43:58;100160.00;;;14.95;77.74
36234;BME280;43467;50.890;5.982;2023-08-08T00:46:24;100135.97;;;14.82;77.81
36234;BME280;43467;50.890;5.982;2023-08-08T00:48:51;100102.53;;;14.50;77.80
36234;BME280;43467;50.890;5.982;2023-08-08T00:51:18;100080.72;;;14.43;78.52
36234;BME280;43467;50.890;5.982;2023-08-08T00:53:45;100101.81;;;14.61;78.41
36234;BME280;43467;50.890;5.982;2023-08-08T00:56:13;100146.31;;;14.87;78.44
36234;BME280;43467;50.890;5.982;2023-08-08T00:58:40;100144.41;;;14.89;78.45
36234;BME280;43467;50.890;5.982;2023-08-08T01:01:06;100048.59;;;14.18;79.07
36234;BME280;43467;50.890;5.982;2023-08-08T01:03:32;100085.13;;;14.30;79.75
36234;BME280;43467;50.890;5.982;2023-08-08T01:06:14;100150.25;;;14.67;79.78
36234;BME280;43467;50.890;5.982;2023-08-08T01:09:04;100117.44;;;14.53;79.78
36234;BME280;43467;50.890;5.982;2023-08-08T01:11:31;100150.94;;;14.71;79.84
36234;BME280;43467;50.890;5.982;2023-08-08T01:14:00;100098.72;;;14.40;79.73
36234;BME280;43467;50.890;5.982;2023-08-08T01:16:26;100144.91;;;14.67;79.79
36234;BME280;43467;50.890;5.982;2023-08-08T01:18:53;100148.84;;;14.62;80.37
36234;BME280;43467;50.890;5.982;2023-08-08T01:21:18;100119.66;;;14.46;79.71
36234;BME280;43467;50.890;5.982;2023-08-08T01:23:56;100147.91;;;14.63;80.25
36234;BME280;43467;50.890;5.982;2023-08-08T01:26:22;100147.78;;;14.64;79.90
36234;BME280;43467;50.890;5.982;2023-08-08T01:28:52;100150.56;;;14.63;80.40
36234;BME280;43467;50.890;5.982;2023-08-08T01:31:19;100146.19;;;14.62;80.08
36234;BME280;43467;50.890;5.982;2023-08-08T01:33:45;100136.00;;;14.54;80.43
36234;BME280;43467;50.890;5.982;2023-08-08T01:36:19;100142.56;;;14.63;80.40
36234;BME280;43467;50.890;5.982;2023-08-08T01:38:47;100151.97;;;14.68;80.02
36234;BME280;43467;50.890;5.982;2023-08-08T01:41:15;100143.81;;;14.57;80.36
36234;BME280;43467;50.890;5.982;2023-08-08T01:43:41;100057.81;;;13.98;80.35
36234;BME280;43467;50.890;5.982;2023-08-08T01:46:08;100142.94;;;14.57;80.52
36234;BME280;43467;50.890;5.982;2023-08-08T01:48:34;100155.41;;;14.56;80.68
36234;BME280;43467;50.890;5.982;2023-08-08T01:50:59;100118.75;;;14.31;81.19
36234;BME280;43467;50.890;5.982;2023-08-08T01:53:25;100047.38;;;13.95;81.18
36234;BME280;43467;50.890;5.982;2023-08-08T01:55:51;100055.38;;;13.95;81.40
36234;BME280;43467;50.890;5.982;2023-08-08T01:58:18;100115.72;;;14.23;81.39
36234;BME280;43467;50.890;5.982;2023-08-08T02:00:44;100175.97;;;14.40;82.38
36234;BME280;43467;50.890;5.982;2023-08-08T02:03:12;100151.06;;;14.41;82.65
36234;BME280;43467;50.890;5.982;2023-08-08T02:05:37;100159.69;;;14.45;82.38
36234;BME280;43467;50.890;5.982;2023-08-08T02:08:03;100120.88;;;14.26;82.82
36234;BME280;43467;50.890;5.982;2023-08-08T02:10:28;100057.34;;;13.78;83.03
36234;BME280;43467;50.890;5.982;2023-08-08T02:12:54;100131.22;;;14.31;83.42
36234;BME280;43467;50.890;5.982;2023-08-08T02:15:20;100110.41;;;14.09;84.09
36234;BME280;43467;50.890;5.982;2023-08-08T02:17:46;100151.00;;;14.27;84.46
36234;BME280;43467;50.890;5.982;2023-08-08T02:20:12;100062.41;;;13.96;83.49
36234;BME280;43467;50.890;5.982;2023-08-08T02:22:38;100141.03;;;14.30;84.53
36234;BME280;43467;50.890;5.982;2023-08-08T02:25:04;100119.44;;;14.21;84.91
36234;BME280;43467;50.890;5.982;2023-08-08T02:27:29;100053.09;;;13.75;84.89
36234;BME280;43467;50.890;5.982;2023-08-08T02:29:55;100130.03;;;14.36;84.80
36234;BME280;43467;50.890;5.982;2023-08-08T02:32:22;100110.88;;;14.16;85.53
36234;BME280;43467;50.890;5.982;2023-08-08T02:34:48;100109.94;;;14.17;85.75
36234;BME280;43467;50.890;5.982;2023-08-08T02:37:13;100091.50;;;14.00;86.75
36234;BME280;43467;50.890;5.982;2023-08-08T02:39:39;100101.66;;;14.07;86.75
36234;BME280;43467;50.890;5.982;2023-08-08T02:42:05;100046.44;;;13.68;87.20
36234;BME280;43467;50.890;5.982;2023-08-08T02:44:30;100003.66;;;13.43;87.77
36234;BME280;43467;50.890;5.982;2023-08-08T02:46:56;100115.16;;;14.04;87.72
36234;BME280;43467;50.890;5.982;2023-08-08T02:49:22;100088.53;;;14.04;87.94
36234;BME280;43467;50.890;5.982;2023-08-08T02:51:47;100090.44;;;14.02;88.06
36234;BME280;43467;50.890;5.982;2023-08-08T02:54:13;100059.47;;;13.73;88.85
36234;BME280;43467;50.890;5.982;2023-08-08T02:56:38;100030.47;;;13.68;88.49
36234;BME280;43467;50.890;5.982;2023-08-08T02:59:04;100020.09;;;13.64;88.67
36234;BME280;43467;50.890;5.982;2023-08-08T03:01:29;100074.19;;;14.07;88.49
36234;BME280;43467;50.890;5.982;2023-08-08T03:03:55;100017.66;;;13.61;88.86
36234;BME280;43467;50.890;5.982;2023-08-08T03:06:20;100091.31;;;14.17;88.63
36234;BME280;43467;50.890;5.982;2023-08-08T03:08:47;100053.47;;;13.98;88.83
36234;BME280;43467;50.890;5.982;2023-08-08T03:11:12;100075.69;;;14.11;88.84
36234;BME280;43467;50.890;5.982;2023-08-08T03:13:38;100081.75;;;14.27;88.83
36234;BME280;43467;50.890;5.982;2023-08-08T03:16:04;100071.16;;;14.13;89.21
36234;BME280;43467;50.890;5.982;2023-08-08T03:18:29;100019.44;;;13.88;88.85
36234;BME280;43467;50.890;5.982;2023-08-08T03:20:55;100066.28;;;14.19;89.24
36234;BME280;43467;50.890;5.982;2023-08-08T03:23:20;100078.94;;;14.30;89.17
36234;BME280;43467;50.890;5.982;2023-08-08T03:25:48;100009.66;;;13.89;89.39
36234;BME280;43467;50.890;5.982;2023-08-08T03:28:14;100001.00;;;13.85;90.05
36234;BME280;43467;50.890;5.982;2023-08-08T03:30:39;100068.75;;;14.22;89.76
36234;BME280;43467;50.890;5.982;2023-08-08T03:33:05;100048.22;;;14.10;90.44
36234;BME280;43467;50.890;5.982;2023-08-08T03:35:30;100028.09;;;13.92;90.69
36234;BME280;43467;50.890;5.982;2023-08-08T03:37:56;100079.50;;;14.21;91.02
36234;BME280;43467;50.890;5.982;2023-08-08T03:40:21;100066.47;;;14.16;91.53
36234;BME280;43467;50.890;5.982;2023-08-08T03:42:47;100085.78;;;14.34;90.92
36234;BME280;43467;50.890;5.982;2023-08-08T03:45:13;100086.16;;;14.28;91.49
36234;BME280;43467;50.890;5.982;2023-08-08T03:47:38;100067.06;;;14.21;91.65
36234;BME280;43467;50.890;5.982;2023-08-08T03:50:05;100077.31;;;14.27;91.36
36234;BME280;43467;50.890;5.982;2023-08-08T03:52:31;100063.81;;;14.16;91.79
36234;BME280;43467;50.890;5.982;2023-08-08T03:54:59;100059.84;;;14.09;91.82
36234;BME280;43467;50.890;5.982;2023-08-08T03:57:25;100069.72;;;14.21;92.07
36234;BME280;43467;50.890;5.982;2023-08-08T03:59:50;100063.16;;;14.13;92.48
36234;BME280;43467;50.890;5.982;2023-08-08T04:02:16;100058.41;;;14.04;92.66
36234;BME280;43467;50.890;5.982;2023-08-08T04:04:42;99968.25;;;13.57;92.08
36234;BME280;43467;50.890;5.982;2023-08-08T04:07:09;100017.81;;;13.86;92.21
36234;BME280;43467;50.890;5.982;2023-08-08T04:09:35;100001.09;;;13.70;92.67
36234;BME280;43467;50.890;5.982;2023-08-08T04:12:00;100022.47;;;13.82;92.73
36234;BME280;43467;50.890;5.982;2023-08-08T04:14:26;100047.56;;;13.92;92.86
36234;BME280;43467;50.890;5.982;2023-08-08T04:16:51;100044.81;;;13.94;92.44
36234;BME280;43467;50.890;5.982;2023-08-08T04:19:17;100038.53;;;13.95;92.55
36234;BME280;43467;50.890;5.982;2023-08-08T04:21:42;100058.09;;;13.94;93.34
36234;BME280;43467;50.890;5.982;2023-08-08T04:24:08;100029.59;;;13.82;93.22
36234;BME280;43467;50.890;5.982;2023-08-08T04:26:34;99974.78;;;13.51;93.79
36234;BME280;43467;50.890;5.982;2023-08-08T04:28:59;100035.13;;;13.79;93.77
36234;BME280;43467;50.890;5.982;2023-08-08T04:31:25;100011.56;;;13.59;94.04
36234;BME280;43467;50.890;5.982;2023-08-08T04:33:51;100056.91;;;13.85;94.48
36234;BME280;43467;50.890;5.982;2023-08-08T04:36:21;100028.19;;;13.76;94.58
36234;BME280;43467;50.890;5.982;2023-08-08T04:38:46;100049.88;;;13.84;94.33
36234;BME280;43467;50.890;5.982;2023-08-08T04:41:12;100038.94;;;13.89;94.35
36234;BME280;43467;50.890;5.982;2023-08-08T04:43:37;100033.97;;;13.83;94.04
36234;BME280;43467;50.890;5.982;2023-08-08T04:46:03;100057.28;;;13.93;94.13
36234;BME280;43467;50.890;5.982;2023-08-08T04:48:29;100052.31;;;13.87;94.11
36234;BME280;43467;50.890;5.982;2023-08-08T04:50:55;100039.69;;;13.91;93.60
36234;BME280;43467;50.890;5.982;2023-08-08T04:53:20;100043.84;;;13.95;93.23
36234;BME280;43467;50.890;5.982;2023-08-08T04:55:46;100029.31;;;13.86;93.52
36234;BME280;43467;50.890;5.982;2023-08-08T04:58:11;100062.69;;;13.92;93.43
36234;BME280;43467;50.890;5.982;2023-08-08T05:00:37;99999.97;;;13.60;93.61
36234;BME280;43467;50.890;5.982;2023-08-08T05:03:02;100003.75;;;13.70;92.98
36234;BME280;43467;50.890;5.982;2023-08-08T05:05:28;100040.94;;;13.85;93.01
36234;BME280;43467;50.890;5.982;2023-08-08T05:07:53;100058.47;;;14.02;92.84
36234;BME280;43467;50.890;5.982;2023-08-08T05:10:19;100051.09;;;13.93;92.69
36234;BME280;43467;50.890;5.982;2023-08-08T05:12:44;100060.00;;;14.06;92.59
36234;BME280;43467;50.890;5.982;2023-08-08T05:15:10;100058.03;;;14.10;92.12
36234;BME280;43467;50.890;5.982;2023-08-08T05:17:36;100051.84;;;14.09;92.02
36234;BME280;43467;50.890;5.982;2023-08-08T05:20:02;100048.63;;;14.04;91.76
36234;BME280;43467;50.890;5.982;2023-08-08T05:22:28;100054.59;;;14.08;91.78
36234;BME280;43467;50.890;5.982;2023-08-08T05:24:54;100061.25;;;14.15;91.84
36234;BME280;43467;50.890;5.982;2023-08-08T05:27:20;100072.47;;;14.20;91.61
36234;BME280;43467;50.890;5.982;2023-08-08T05:29:46;100029.31;;;13.86;92.06
36234;BME280;43467;50.890;5.982;2023-08-08T05:32:12;100044.53;;;13.98;92.44
36234;BME280;43467;50.890;5.982;2023-08-08T05:34:37;100023.91;;;13.88;92.23
36234;BME280;43467;50.890;5.982;2023-08-08T05:37:03;100057.91;;;14.11;92.73
36234;BME280;43467;50.890;5.982;2023-08-08T05:39:29;100067.41;;;14.15;92.81
36234;BME280;43467;50.890;5.982;2023-08-08T05:41:56;100052.50;;;14.13;92.82
36234;BME280;43467;50.890;5.982;2023-08-08T05:44:22;100056.47;;;14.20;92.66
36234;BME280;43467;50.890;5.982;2023-08-08T05:46:47;100062.47;;;14.23;92.35
36234;BME280;43467;50.890;5.982;2023-08-08T05:49:13;100014.75;;;14.06;92.10
36234;BME280;43467;50.890;5.982;2023-08-08T05:51:40;100057.72;;;14.28;92.33
36234;BME280;43467;50.890;5.982;2023-08-08T05:54:05;100050.97;;;14.37;91.55
36234;BME280;43467;50.890;5.982;2023-08-08T05:56:35;100067.31;;;14.45;91.33
36234;BME280;43467;50.890;5.982;2023-08-08T05:59:02;100072.06;;;14.54;91.30
36234;BME280;43467;50.890;5.982;2023-08-08T06:01:27;100085.19;;;14.57;91.26
36234;BME280;43467;50.890;5.982;2023-08-08T06:03:53;100027.47;;;14.29;91.19
36234;BME280;43467;50.890;5.982;2023-08-08T06:06:19;100079.19;;;14.54;91.23
36234;BME280;43467;50.890;5.982;2023-08-08T06:08:44;100071.66;;;14.60;91.16
36234;BME280;43467;50.890;5.982;2023-08-08T06:11:10;100078.13;;;14.56;91.21
36234;BME280;43467;50.890;5.982;2023-08-08T06:13:36;100094.59;;;14.63;91.58
36234;BME280;43467;50.890;5.982;2023-08-08T06:16:02;100048.88;;;14.42;91.56
36234;BME280;43467;50.890;5.982;2023-08-08T06:18:35;100050.28;;;14.33;91.62
36234;BME280;43467;50.890;5.982;2023-08-08T06:21:01;100088.66;;;14.72;91.57
36234;BME280;43467;50.890;5.982;2023-08-08T06:23:26;100085.69;;;14.76;91.76
36234;BME280;43467;50.890;5.982;2023-08-08T06:25:52;100047.44;;;14.51;91.68
36234;BME280;43467;50.890;5.982;2023-08-08T06:28:17;100080.41;;;14.89;91.26
36234;BME280;43467;50.890;5.982;2023-08-08T06:30:43;100080.16;;;14.79;91.59
36234;BME280;43467;50.890;5.982;2023-08-08T06:33:08;100041.03;;;14.53;91.67
36234;BME280;43467;50.890;5.982;2023-08-08T06:35:34;100089.50;;;14.86;91.58
36234;BME280;43467;50.890;5.982;2023-08-08T06:38:00;100087.22;;;14.80;91.99
36234;BME280;43467;50.890;5.982;2023-08-08T06:40:25;100018.59;;;14.43;91.89
36234;BME280;43467;50.890;5.982;2023-08-08T06:42:52;100080.06;;;14.81;91.90
36234;BME280;43467;50.890;5.982;2023-08-08T06:45:18;100087.47;;;14.90;91.85
36234;BME280;43467;50.890;5.982;2023-08-08T06:47:45;100079.72;;;15.00;91.20
36234;BME280;43467;50.890;5.982;2023-08-08T06:50:12;100062.88;;;14.99;90.74
36234;BME280;43467;50.890;5.982;2023-08-08T06:52:37;100095.66;;;15.14;90.42
36234;BME280;43467;50.890;5.982;2023-08-08T06:55:03;100078.66;;;15.02;90.69
36234;BME280;43467;50.890;5.982;2023-08-08T06:57:32;100087.53;;;15.03;90.69
36234;BME280;43467;50.890;5.982;2023-08-08T06:59:58;100074.50;;;14.98;90.26
36234;BME280;43467;50.890;5.982;2023-08-08T07:02:24;100087.59;;;15.01;90.55
36234;BME280;43467;50.890;5.982;2023-08-08T07:04:49;100094.16;;;15.10;90.86
36234;BME280;43467;50.890;5.982;2023-08-08T07:07:15;100091.63;;;15.21;90.21
36234;BME280;43467;50.890;5.982;2023-08-08T07:09:41;100098.44;;;15.25;89.83
36234;BME280;43467;50.890;5.982;2023-08-08T07:12:07;100074.22;;;15.15;89.75
36234;BME280;43467;50.890;5.982;2023-08-08T07:14:33;100089.06;;;15.19;89.80
36234;BME280;43467;50.890;5.982;2023-08-08T07:16:58;100098.75;;;15.20;90.14
36234;BME280;43467;50.890;5.982;2023-08-08T07:19:24;100099.22;;;15.27;90.08
36234;BME280;43467;50.890;5.982;2023-08-08T07:21:49;100078.75;;;15.27;89.59
36234;BME280;43467;50.890;5.982;2023-08-08T07:24:16;100088.97;;;15.33;88.90
36234;BME280;43467;50.890;5.982;2023-08-08T07:26:41;100090.59;;;15.36;88.61
36234;BME280;43467;50.890;5.982;2023-08-08T07:29:07;100067.94;;;15.29;88.71
36234;BME280;43467;50.890;5.982;2023-08-08T07:31:32;100059.72;;;15.19;88.44
36234;BME280;43467;50.890;5.982;2023-08-08T07:33:58;100094.06;;;15.51;88.04
36234;BME280;43467;50.890;5.982;2023-08-08T07:36:24;100032.84;;;15.22;88.13
36234;BME280;43467;50.890;5.982;2023-08-08T07:38:49;100043.31;;;15.38;87.88
36234;BME280;43467;50.890;5.982;2023-08-08T07:41:15;100055.81;;;15.38;87.74
36234;BME280;43467;50.890;5.982;2023-08-08T07:43:41;100053.47;;;15.46;87.49
36234;BME280;43467;50.890;5.982;2023-08-08T07:46:06;100098.03;;;15.70;86.30
36234;BME280;43467;50.890;5.982;2023-08-08T07:48:32;100079.47;;;15.56;86.72
36234;BME280;43467;50.890;5.982;2023-08-08T07:50:57;100046.69;;;15.54;86.32
36234;BME280;43467;50.890;5.982;2023-08-08T07:53:23;100032.13;;;15.46;85.29
36234;BME280;43467;50.890;5.982;2023-08-08T07:55:49;100068.34;;;15.75;84.83
36234;BME280;43467;50.890;5.982;2023-08-08T07:58:14;100044.78;;;15.69;84.77
36234;BME280;43467;50.890;5.982;2023-08-08T08:00:40;100040.72;;;15.63;84.43
36234;BME280;43467;50.890;5.982;2023-08-08T08:03:06;100074.25;;;15.80;83.37
36234;BME280;43467;50.890;5.982;2023-08-08T08:05:32;100080.63;;;15.90;82.72
36234;BME280;43467;50.890;5.982;2023-08-08T08:08:00;100088.75;;;16.01;82.78
36234;BME280;43467;50.890;5.982;2023-08-08T08:10:26;100075.59;;;15.98;81.87
36234;BME280;43467;50.890;5.982;2023-08-08T08:12:52;100088.22;;;16.09;81.87
36234;BME280;43467;50.890;5.982;2023-08-08T08:15:26;100077.94;;;16.15;81.71
36234;BME280;43467;50.890;5.982;2023-08-08T08:17:51;100051.47;;;16.00;81.18
36234;BME280;43467;50.890;5.982;2023-08-08T08:20:17;100068.88;;;16.05;81.42
36234;BME280;43467;50.890;5.982;2023-08-08T08:22:43;100070.69;;;16.17;81.62
36234;BME280;43467;50.890;5.982;2023-08-08T08:25:08;100081.69;;;16.25;81.01
36234;BME280;43467;50.890;5.982;2023-08-08T08:27:35;100073.22;;;16.32;81.23
36234;BME280;43467;50.890;5.982;2023-08-08T08:30:05;100075.00;;;16.44;80.49
36234;BME280;43467;50.890;5.982;2023-08-08T08:32:35;100059.63;;;16.35;80.31
36234;BME280;43467;50.890;5.982;2023-08-08T08:35:02;100085.91;;;16.41;80.31
36234;BME280;43467;50.890;5.982;2023-08-08T08:37:32;100080.25;;;16.58;80.44
36234;BME280;43467;50.890;5.982;2023-08-08T08:39:59;100066.56;;;16.50;80.00
36234;BME280;43467;50.890;5.982;2023-08-08T08:42:26;100074.78;;;16.47;79.31
36234;BME280;43467;50.890;5.982;2023-08-08T08:44:54;100040.25;;;16.44;78.99
36234;BME280;43467;50.890;5.982;2023-08-08T08:47:24;100081.78;;;16.73;79.06
36234;BME280;43467;50.890;5.982;2023-08-08T08:49:51;100086.06;;;16.76;78.87
36234;BME280;43467;50.890;5.982;2023-08-08T08:52:17;100079.56;;;16.67;78.90
36234;BME280;43467;50.890;5.982;2023-08-08T08:54:43;100089.16;;;16.82;78.81
36234;BME280;43467;50.890;5.982;2023-08-08T08:57:08;100079.03;;;16.75;78.24
36234;BME280;43467;50.890;5.982;2023-08-08T08:59:35;100070.56;;;16.68;78.38
36234;BME280;43467;50.890;5.982;2023-08-08T09:02:01;100084.38;;;16.75;78.27
36234;BME280;43467;50.890;5.982;2023-08-08T09:04:28;100090.44;;;16.77;78.53
36234;BME280;43467;50.890;5.982;2023-08-08T09:06:54;100062.03;;;16.63;77.73
36234;BME280;43467;50.890;5.982;2023-08-08T09:09:20;100080.16;;;16.83;77.01
36234;BME280;43467;50.890;5.982;2023-08-08T09:11:53;100090.38;;;16.89;76.36
36234;BME280;43467;50.890;5.982;2023-08-08T09:14:22;100037.53;;;16.69;76.57
36234;BME280;43467;50.890;5.982;2023-08-08T09:16:48;100088.84;;;16.98;75.68
36234;BME280;43467;50.890;5.982;2023-08-08T09:19:15;100079.03;;;16.98;75.24
36234;BME280;43467;50.890;5.982;2023-08-08T09:21:40;100074.88;;;16.94;74.78
36234;BME280;43467;50.890;5.982;2023-08-08T09:24:06;100090.72;;;17.08;74.40
36234;BME280;43467;50.890;5.982;2023-08-08T09:26:33;100077.97;;;17.12;73.92
36234;BME280;43467;50.890;5.982;2023-08-08T09:29:01;100085.16;;;17.11;73.79
36234;BME280;43467;50.890;5.982;2023-08-08T09:31:27;100101.50;;;17.19;74.18
36234;BME280;43467;50.890;5.982;2023-08-08T09:33:58;100098.94;;;17.18;74.19
36234;BME280;43467;50.890;5.982;2023-08-08T09:36:24;100093.19;;;17.11;74.36
36234;BME280;43467;50.890;5.982;2023-08-08T09:38:51;100090.78;;;16.96;74.12
36234;BME280;43467;50.890;5.982;2023-08-08T09:41:16;100096.06;;;17.08;74.05
36234;BME280;43467;50.890;5.982;2023-08-08T09:43:45;100063.06;;;16.97;73.31
36234;BME280;43467;50.890;5.982;2023-08-08T09:46:12;100047.03;;;16.97;73.08
36234;BME280;43467;50.890;5.982;2023-08-08T09:48:40;100007.91;;;16.72;72.90
36234;BME280;43467;50.890;5.982;2023-08-08T09:51:07;99986.50;;;16.72;71.54
36234;BME280;43467;50.890;5.982;2023-08-08T09:53:34;100087.91;;;17.34;71.69
36234;BME280;43467;50.890;5.982;2023-08-08T09:56:02;100071.84;;;17.34;70.76
36234;BME280;43467;50.890;5.982;2023-08-08T09:58:29;100075.91;;;17.39;69.62
36234;BME280;43467;50.890;5.982;2023-08-08T10:00:54;100086.75;;;17.49;69.69
36234;BME280;43467;50.890;5.982;2023-08-08T10:03:20;100038.00;;;17.22;67.68
36234;BME280;43467;50.890;5.982;2023-08-08T10:05:46;100080.31;;;17.51;68.00
36234;BME280;43467;50.890;5.982;2023-08-08T10:08:14;100074.28;;;17.60;68.53
36234;BME280;43467;50.890;5.982;2023-08-08T10:10:40;100100.13;;;17.73;67.88
36234;BME280;43467;50.890;5.982;2023-08-08T10:13:07;100094.38;;;17.66;67.49
36234;BME280;43467;50.890;5.982;2023-08-08T10:15:37;100045.97;;;17.34;67.94
36234;BME280;43467;50.890;5.982;2023-08-08T10:18:03;100087.19;;;17.67;68.44
36234;BME280;43467;50.890;5.982;2023-08-08T10:20:31;100052.94;;;17.48;68.38
36234;BME280;43467;50.890;5.982;2023-08-08T10:22:58;100065.31;;;17.49;69.04
36234;BME280;43467;50.890;5.982;2023-08-08T10:25:24;100053.19;;;17.56;68.58
36234;BME280;43467;50.890;5.982;2023-08-08T10:28:05;100088.56;;;17.83;67.92
36234;BME280;43467;50.890;5.982;2023-08-08T10:30:48;100090.28;;;17.84;67.43
36234;BME280;43467;50.890;5.982;2023-08-08T10:36:10;100087.97;;;17.91;67.62
36234;BME280;43467;50.890;5.982;2023-08-08T10:38:40;100090.19;;;17.97;67.55
36234;BME280;43467;50.890;5.982;2023-08-08T10:41:09;100095.75;;;17.94;66.71
36234;BME280;43467;50.890;5.982;2023-08-08T10:43:36;100083.22;;;17.83;66.27
36234;BME280;43467;50.890;5.982;2023-08-08T10:46:03;100072.97;;;17.77;66.74
36234;BME280;43467;50.890;5.982;2023-08-08T10:48:29;100062.63;;;17.73;66.81
36234;BME280;43467;50.890;5.982;2023-08-08T10:50:57;100088.91;;;17.79;66.79
36234;BME280;43467;50.890;5.982;2023-08-08T10:53:26;100087.97;;;17.80;66.63
36234;BME280;43467;50.890;5.982;2023-08-08T10:56:03;100075.78;;;17.76;67.20
36234;BME280;43467;50.890;5.982;2023-08-08T10:58:37;100085.97;;;17.71;67.41
36234;BME280;43467;50.890;5.982;2023-08-08T11:01:03;100078.97;;;17.57;67.95
36234;BME280;43467;50.890;5.982;2023-08-08T11:03:34;100068.50;;;17.54;67.63
36234;BME280;43467;50.890;5.982;2023-08-08T11:06:01;100077.59;;;17.64;68.32
36234;BME280;43467;50.890;5.982;2023-08-08T11:08:29;100046.13;;;17.44;68.19
36234;BME280;43467;50.890;5.982;2023-08-08T11:10:56;100072.78;;;17.56;68.39
36234;BME280;43467;50.890;5.982;2023-08-08T11:13:22;99983.63;;;17.10;68.60
36234;BME280;43467;50.890;5.982;2023-08-08T11:15:48;100054.41;;;17.52;68.78
36234;BME280;43467;50.890;5.982;2023-08-08T11:18:13;100046.94;;;17.44;68.77
36234;BME280;43467;50.890;5.982;2023-08-08T11:20:39;100077.69;;;17.62;68.73
36234;BME280;43467;50.890;5.982;2023-08-08T11:23:05;100078.31;;;17.66;68.64
36234;BME280;43467;50.890;5.982;2023-08-08T11:25:35;100069.75;;;17.61;68.43
36234;BME280;43467;50.890;5.982;2023-08-08T11:28:02;100070.88;;;17.58;68.47
36234;BME280;43467;50.890;5.982;2023-08-08T11:30:29;100064.41;;;17.61;68.66
36234;BME280;43467;50.890;5.982;2023-08-08T11:32:55;100051.78;;;17.63;68.10
36234;BME280;43467;50.890;5.982;2023-08-08T11:35:23;100044.25;;;17.68;67.32
36234;BME280;43467;50.890;5.982;2023-08-08T11:37:51;100059.34;;;17.80;67.31
36234;BME280;43467;50.890;5.982;2023-08-08T11:40:17;100050.47;;;17.91;65.87
36234;BME280;43467;50.890;5.982;2023-08-08T11:42:43;100054.13;;;18.12;66.24
36234;BME280;43467;50.890;5.982;2023-08-08T11:45:11;100057.31;;;18.17;64.89
36234;BME280;43467;50.890;5.982;2023-08-08T11:47:38;100039.38;;;18.06;64.18
36234;BME280;43467;50.890;5.982;2023-08-08T11:50:06;100059.72;;;18.20;64.58
36234;BME280;43467;50.890;5.982;2023-08-08T11:52:33;100025.50;;;18.13;64.50
36234;BME280;43467;50.890;5.982;2023-08-08T11:54:59;100045.72;;;18.17;64.93
36234;BME280;43467;50.890;5.982;2023-08-08T11:57:26;100026.13;;;18.05;64.34
36234;BME280;43467;50.890;5.982;2023-08-08T11:59:55;100043.88;;;18.06;64.21
36234;BME280;43467;50.890;5.982;2023-08-08T12:02:22;100003.00;;;17.93;64.21
36234;BME280;43467;50.890;5.982;2023-08-08T12:04:48;100051.69;;;18.20;64.07
36234;BME280;43467;50.890;5.982;2023-08-08T12:07:14;100058.97;;;18.18;63.14
36234;BME280;43467;50.890;5.982;2023-08-08T12:09:39;100047.66;;;18.15;63.33
36234;BME280;43467;50.890;5.982;2023-08-08T12:12:05;100047.19;;;18.21;62.98
36234;BME280;43467;50.890;5.982;2023-08-08T12:14:37;100063.00;;;18.35;62.38
36234;BME280;43467;50.890;5.982;2023-08-08T12:17:02;100034.66;;;18.21;62.27
36234;BME280;43467;50.890;5.982;2023-08-08T12:19:29;100023.69;;;18.13;62.54
36234;BME280;43467;50.890;5.982;2023-08-08T12:21:54;100047.69;;;18.26;63.28
36234;BME280;43467;50.890;5.982;2023-08-08T12:24:20;100058.75;;;18.32;63.39
36234;BME280;43467;50.890;5.982;2023-08-08T12:26:46;100058.16;;;18.29;62.87
36234;BME280;43467;50.890;5.982;2023-08-08T12:29:12;100042.81;;;18.08;63.04
36234;BME280;43467;50.890;5.982;2023-08-08T12:31:38;100036.59;;;18.08;63.33
36234;BME280;43467;50.890;5.982;2023-08-08T12:34:04;100003.22;;;17.79;62.24
36234;BME280;43467;50.890;5.982;2023-08-08T12:36:30;100047.44;;;17.95;62.65
36234;BME280;43467;50.890;5.982;2023-08-08T12:38:58;100049.09;;;17.85;62.89
36234;BME280;43467;50.890;5.982;2023-08-08T12:41:24;100047.66;;;17.81;63.14
36234;BME280;43467;50.890;5.982;2023-08-08T12:43:50;100029.00;;;17.57;63.25
36234;BME280;43467;50.890;5.982;2023-08-08T12:46:16;100017.78;;;17.52;63.99
36234;BME280;43467;50.890;5.982;2023-08-08T12:48:42;100061.03;;;17.70;64.10